^^
Saratoga-Weather Station Historical Data
Daily Summary for September 8, 2020 Units:  Both    English   Metric
Daily Weekly Monthly Yearly Custom
  High: Low: Average:
Temperature: 49.6 °F /  9.8 °C 37.2 °F /  2.9 °C 44.2 °F /  6.8 °C
Dew Point: 49.1 °F /  9.5 °C 36.1 °F /  2.3 °C 43.5 °F /  6.4 °C
Humidity: 99% 96% 98%
Wind Speed: 4mph /  6.4km/h - 0.7mph /  1.2km/h
Wind Gust: 8mph /  12.9km/h - -
Wind- - ESE
Pressure: 30.4 in /  1028.5 hPa 30.3 in /  1024.7 hPa -
Precipitation: 0.09 in /  2.3 mm    
Historical Graphs
 
 
Tabular Data for September 8, 2020
Time Temperature Dew Point Pressure Wind Wind Speed Wind Gust Humidity Rainfall Rate (Hourly) solar
00:02 37.2 °F /  2.9 °C 36.1 °F /  2.3 °C 30.4in /  1028.5hPa Calm   2mph /  3.2km/h 96% 0in /  0.0mm 0 W/m2
00:07 37.2 °F /  2.9 °C 36.1 °F /  2.3 °C 30.4in /  1028.5hPa ESE 2.9mph /  4.7km/h 3mph /  4.8km/h 96% 0in /  0.0mm 0 W/m2
00:12 37.2 °F /  2.9 °C 36.1 °F /  2.3 °C 30.4in /  1028.1hPa Calm   3mph /  4.8km/h 96% 0in /  0.0mm 0 W/m2
00:17 37.2 °F /  2.9 °C 36.1 °F /  2.3 °C 30.4in /  1028.1hPa Calm   4mph /  6.4km/h 96% 0in /  0.0mm 0 W/m2
00:22 37.2 °F /  2.9 °C 36.1 °F /  2.3 °C 30.4in /  1027.8hPa Calm   4mph /  6.4km/h 96% 0in /  0.0mm 0 W/m2
00:27 37.2 °F /  2.9 °C 36.1 °F /  2.3 °C 30.4in /  1028.1hPa Calm     96% 0in /  0.0mm 0 W/m2
00:32 37.2 °F /  2.9 °C 36.1 °F /  2.3 °C 30.4in /  1027.8hPa Calm   4mph /  6.4km/h 96% 0in /  0.0mm 0 W/m2
00:37 37.2 °F /  2.9 °C 36.1 °F /  2.3 °C 30.4in /  1028.1hPa Calm   2mph /  3.2km/h 96% 0in /  0.0mm 0 W/m2
00:42 37.2 °F /  2.9 °C 36.1 °F /  2.3 °C 30.4in /  1028.5hPa Calm   4mph /  6.4km/h 96% 0in /  0.0mm 0 W/m2
00:47 37.2 °F /  2.9 °C 36.1 °F /  2.3 °C 30.4in /  1028.5hPa Calm     96% 0in /  0.0mm 0 W/m2
00:52 37.2 °F /  2.9 °C 36.1 °F /  2.3 °C 30.4in /  1028.5hPa Calm     96% 0in /  0.0mm 0 W/m2
00:57 37.2 °F /  2.9 °C 36.1 °F /  2.3 °C 30.4in /  1028.5hPa Calm     96% 0in /  0.0mm 0 W/m2
01:02 37.2 °F /  2.9 °C 36.1 °F /  2.3 °C 30.4in /  1028.1hPa Calm     96% 0in /  0.0mm 0 W/m2
01:07 37.2 °F /  2.9 °C 36.1 °F /  2.3 °C 30.4in /  1028.1hPa Calm     96% 0in /  0.0mm 0 W/m2
01:12 37.2 °F /  2.9 °C 36.1 °F /  2.3 °C 30.4in /  1028.1hPa Calm     96% 0in /  0.0mm 0 W/m2
01:17 37.2 °F /  2.9 °C 36.1 °F /  2.3 °C 30.4in /  1028.1hPa Calm     96% 0in /  0.0mm 0 W/m2
01:22 37.2 °F /  2.9 °C 36.1 °F /  2.3 °C 30.4in /  1028.1hPa Calm     96% 0in /  0.0mm 0 W/m2
01:27 37.2 °F /  2.9 °C 36.1 °F /  2.3 °C 30.4in /  1027.8hPa Calm     96% 0in /  0.0mm 0 W/m2
01:32 37.2 °F /  2.9 °C 36.1 °F /  2.3 °C 30.4in /  1027.8hPa ESE 2mph /  3.2km/h 3mph /  4.8km/h 96% 0in /  0.0mm 0 W/m2
01:37 37.2 °F /  2.9 °C 36.1 °F /  2.3 °C 30.4in /  1027.8hPa Calm   4mph /  6.4km/h 96% 0in /  0.0mm 0 W/m2
01:42 37.2 °F /  2.9 °C 36.1 °F /  2.3 °C 30.4in /  1027.8hPa SE 0.9mph /  1.4km/h 2mph /  3.2km/h 96% 0in /  0.0mm 0 W/m2
01:47 37.2 °F /  2.9 °C 36.1 °F /  2.3 °C 30.4in /  1027.8hPa Calm   4mph /  6.4km/h 96% 0in /  0.0mm 0 W/m2
01:52 37.2 °F /  2.9 °C 36.1 °F /  2.3 °C 30.4in /  1027.8hPa Calm     96% 0in /  0.0mm 0 W/m2
01:57 37.2 °F /  2.9 °C 36.1 °F /  2.3 °C 30.3in /  1027.4hPa Calm     96% 0in /  0.0mm 0 W/m2
02:02 37.4 °F /  3 °C 36.3 °F /  2.4 °C 30.3in /  1027.4hPa Calm   4mph /  6.4km/h 96% 0in /  0.0mm 0 W/m2
02:08 37.6 °F /  3.1 °C 36.5 °F /  2.5 °C 30.3in /  1027.4hPa Calm     96% 0in /  0.0mm 0 W/m2
02:13 37.6 °F /  3.1 °C 36.9 °F /  2.7 °C 30.3in /  1027.4hPa Calm   4mph /  6.4km/h 97% 0in /  0.0mm 0 W/m2
02:18 37.8 °F /  3.2 °C 37 °F /  2.8 °C 30.3in /  1027.4hPa Calm     97% 0in /  0.0mm 0 W/m2
02:23 37.8 °F /  3.2 °C 37 °F /  2.8 °C 30.3in /  1027.4hPa Calm     97% 0in /  0.0mm 0 W/m2
02:28 37.8 °F /  3.2 °C 37 °F /  2.8 °C 30.3in /  1027.4hPa Calm     97% 0in /  0.0mm 0 W/m2
02:33 37.8 °F /  3.2 °C 37 °F /  2.8 °C 30.3in /  1027.4hPa Calm     97% 0in /  0.0mm 0 W/m2
02:38 37.8 °F /  3.2 °C 37 °F /  2.8 °C 30.3in /  1027.4hPa Calm     97% 0in /  0.0mm 0 W/m2
02:43 37.8 °F /  3.2 °C 37 °F /  2.8 °C 30.3in /  1027.4hPa Calm     97% 0in /  0.0mm 0 W/m2
02:48 37.8 °F /  3.2 °C 37 °F /  2.8 °C 30.4in /  1027.8hPa Calm     97% 0in /  0.0mm 0 W/m2
02:53 37.9 °F /  3.3 °C 37.2 °F /  2.9 °C 30.3in /  1027.4hPa Calm     97% 0in /  0.0mm 0 W/m2
02:58 37.9 °F /  3.3 °C 37.2 °F /  2.9 °C 30.3in /  1027.4hPa Calm     97% 0.01in /  0.2mm 0 W/m2
03:03 37.9 °F /  3.3 °C 37.2 °F /  2.9 °C 30.4in /  1027.8hPa Calm     97% 0.01in /  0.2mm 0 W/m2
03:08 37.9 °F /  3.3 °C 37.2 °F /  2.9 °C 30.4in /  1027.8hPa Calm     97% 0.01in /  0.2mm 0 W/m2
03:13 37.9 °F /  3.3 °C 37.2 °F /  2.9 °C 30.4in /  1027.8hPa Calm     97% 0.01in /  0.2mm 0 W/m2
03:18 37.9 °F /  3.3 °C 37.2 °F /  2.9 °C 30.3in /  1027.4hPa Calm     97% 0.01in /  0.2mm 0 W/m2
03:23 37.9 °F /  3.3 °C 37.2 °F /  2.9 °C 30.3in /  1027.4hPa Calm     97% 0.01in /  0.2mm 0 W/m2
03:28 37.9 °F /  3.3 °C 37.2 °F /  2.9 °C 30.3in /  1027.4hPa Calm     97% 0.01in /  0.2mm 0 W/m2
03:33 37.9 °F /  3.3 °C 37.2 °F /  2.9 °C 30.3in /  1027.4hPa Calm     97% 0.01in /  0.2mm 0 W/m2
03:38 37.9 °F /  3.3 °C 37.2 °F /  2.9 °C 30.3in /  1027.4hPa Calm     97% 0.01in /  0.2mm 0 W/m2
03:43 37.9 °F /  3.3 °C 37.2 °F /  2.9 °C 30.3in /  1027.4hPa Calm     97% 0.01in /  0.2mm 0 W/m2
03:48 37.9 °F /  3.3 °C 37.2 °F /  2.9 °C 30.3in /  1027.1hPa Calm     97% 0.01in /  0.2mm 0 W/m2
03:53 37.9 °F /  3.3 °C 37.2 °F /  2.9 °C 30.3in /  1027.1hPa Calm     97% 0.01in /  0.2mm 0 W/m2
03:59 38.1 °F /  3.4 °C 37.4 °F /  3 °C 30.3in /  1027.1hPa Calm     97% 0in /  0.0mm 0 W/m2
04:04 38.1 °F /  3.4 °C 37.4 °F /  3 °C 30.3in /  1026.8hPa Calm   1mph /  1.6km/h 97% 0in /  0.0mm 0 W/m2
04:09 38.5 °F /  3.6 °C 37.8 °F /  3.2 °C 30.3in /  1026.8hPa Calm     97% 0in /  0.0mm 0 W/m2
04:14 38.7 °F /  3.7 °C 37.9 °F /  3.3 °C 30.3in /  1026.8hPa Calm     97% 0in /  0.0mm 0 W/m2
04:19 38.8 °F /  3.8 °C 38.1 °F /  3.4 °C 30.3in /  1026.8hPa Calm     97% 0in /  0.0mm 0 W/m2
04:24 38.8 °F /  3.8 °C 38.1 °F /  3.4 °C 30.3in /  1026.8hPa Calm     97% 0in /  0.0mm 0 W/m2
04:29 38.8 °F /  3.8 °C 38.1 °F /  3.4 °C 30.3in /  1026.8hPa Calm     97% 0in /  0.0mm 0 W/m2
04:34 38.8 °F /  3.8 °C 38.1 °F /  3.4 °C 30.3in /  1026.8hPa Calm     97% 0in /  0.0mm 0 W/m2
04:39 38.8 °F /  3.8 °C 38.1 °F /  3.4 °C 30.3in /  1026.8hPa Calm     97% 0in /  0.0mm 0 W/m2
04:44 38.7 °F /  3.7 °C 37.9 °F /  3.3 °C 30.3in /  1026.4hPa Calm     97% 0in /  0.0mm 0 W/m2
04:49 38.7 °F /  3.7 °C 37.9 °F /  3.3 °C 30.3in /  1026.8hPa Calm     97% 0in /  0.0mm 0 W/m2
04:54 38.7 °F /  3.7 °C 37.9 °F /  3.3 °C 30.3in /  1026.8hPa Calm     97% 0in /  0.0mm 0 W/m2
04:59 38.8 °F /  3.8 °C 38.1 °F /  3.4 °C 30.3in /  1026.8hPa Calm     97% 0in /  0.0mm 0 W/m2
05:04 38.8 °F /  3.8 °C 38.1 °F /  3.4 °C 30.3in /  1026.8hPa Calm     97% 0in /  0.0mm 0 W/m2
05:09 38.8 °F /  3.8 °C 38.1 °F /  3.4 °C 30.3in /  1026.8hPa Calm     97% 0in /  0.0mm 0 W/m2
05:14 38.8 °F /  3.8 °C 38.1 °F /  3.4 °C 30.3in /  1026.8hPa Calm     97% 0in /  0.0mm 0 W/m2
05:19 38.8 °F /  3.8 °C 38.1 °F /  3.4 °C 30.3in /  1026.8hPa Calm     97% 0in /  0.0mm 0 W/m2
05:24 38.8 °F /  3.8 °C 38.1 °F /  3.4 °C 30.3in /  1026.8hPa Calm     97% 0in /  0.0mm 0 W/m2
05:29 39 °F /  3.9 °C 38.3 °F /  3.5 °C 30.3in /  1026.8hPa Calm     97% 0in /  0.0mm 0 W/m2
05:34 39 °F /  3.9 °C 38.3 °F /  3.5 °C 30.3in /  1026.8hPa Calm     97% 0in /  0.0mm 0 W/m2
05:39 39 °F /  3.9 °C 38.3 °F /  3.5 °C 30.3in /  1026.8hPa Calm     97% 0in /  0.0mm 0 W/m2
05:44 39 °F /  3.9 °C 38.3 °F /  3.5 °C 30.3in /  1026.8hPa Calm     97% 0in /  0.0mm 0 W/m2
05:49 39.2 °F /  4 °C 38.5 °F /  3.6 °C 30.3in /  1026.8hPa Calm     97% 0in /  0.0mm 0 W/m2
05:54 39.2 °F /  4 °C 38.5 °F /  3.6 °C 30.3in /  1026.8hPa Calm     97% 0in /  0.0mm 0 W/m2
05:59 39.4 °F /  4.1 °C 38.7 °F /  3.7 °C 30.3in /  1027.1hPa Calm     97% 0in /  0.0mm 0 W/m2
06:04 39.4 °F /  4.1 °C 38.7 °F /  3.7 °C 30.3in /  1027.1hPa Calm     97% 0in /  0.0mm 0 W/m2
06:09 39.4 °F /  4.1 °C 38.7 °F /  3.7 °C 30.3in /  1026.8hPa Calm     97% 0in /  0.0mm 0 W/m2
06:14 39.6 °F /  4.2 °C 38.8 °F /  3.8 °C 30.3in /  1027.1hPa Calm     97% 0in /  0.0mm 0 W/m2
06:19 39.6 °F /  4.2 °C 38.8 °F /  3.8 °C 30.3in /  1027.1hPa Calm     97% 0in /  0.0mm 0 W/m2
06:24 39.7 °F /  4.3 °C 39 °F /  3.9 °C 30.3in /  1027.1hPa Calm     97% 0in /  0.0mm 0 W/m2
06:29 39.7 °F /  4.3 °C 39.2 °F /  4 °C 30.3in /  1027.1hPa Calm     98% 0.01in /  0.2mm 0 W/m2
06:34 39.9 °F /  4.4 °C 39.4 °F /  4.1 °C 30.3in /  1026.8hPa Calm     98% 0.01in /  0.2mm 0 W/m2
06:39 39.9 °F /  4.4 °C 39.4 °F /  4.1 °C 30.3in /  1026.8hPa East 2.9mph /  4.7km/h 4mph /  6.4km/h 98% 0.02in /  0.5mm 0 W/m2
06:44 40.3 °F /  4.6 °C 39.6 °F /  4.2 °C 30.3in /  1026.8hPa Calm     97% 0.02in /  0.5mm 0 W/m2
06:49 40.3 °F /  4.6 °C 39.6 °F /  4.2 °C 30.3in /  1026.8hPa East 0.9mph /  1.4km/h 2mph /  3.2km/h 97% 0.02in /  0.5mm 0 W/m2
06:54 40.3 °F /  4.6 °C 39.6 °F /  4.2 °C 30.3in /  1026.8hPa Calm     97% 0.02in /  0.5mm 0 W/m2
06:59 40.5 °F /  4.7 °C 39.9 °F /  4.4 °C 30.3in /  1026.8hPa Calm     98% 0.02in /  0.5mm 0 W/m2
07:04 40.5 °F /  4.7 °C 39.9 °F /  4.4 °C 30.3in /  1026.8hPa Calm     98% 0.02in /  0.5mm 0 W/m2
07:09 40.5 °F /  4.7 °C 39.9 °F /  4.4 °C 30.3in /  1026.8hPa Calm     98% 0.02in /  0.5mm 0 W/m2
07:14 40.5 °F /  4.7 °C 39.9 °F /  4.4 °C 30.3in /  1026.8hPa Calm     98% 0.02in /  0.5mm 0 W/m2
07:19 40.6 °F /  4.8 °C 40.1 °F /  4.5 °C 30.3in /  1026.8hPa Calm     98% 0.02in /  0.5mm 0 W/m2
07:24 40.6 °F /  4.8 °C 40.1 °F /  4.5 °C 30.3in /  1026.8hPa Calm     98% 0.02in /  0.5mm 0 W/m2
07:30 40.8 °F /  4.9 °C 40.3 °F /  4.6 °C 30.3in /  1026.8hPa Calm     98% 0.01in /  0.2mm 0 W/m2
07:35 40.8 °F /  4.9 °C 40.3 °F /  4.6 °C 30.3in /  1026.8hPa Calm     98% 0.01in /  0.2mm 0 W/m2
07:40 40.8 °F /  4.9 °C 40.3 °F /  4.6 °C 30.3in /  1026.8hPa Calm     98% 0in /  0.0mm 0 W/m2
07:45 41 °F /  5 °C 40.5 °F /  4.7 °C 30.3in /  1026.8hPa Calm     98% 0.01in /  0.2mm 0 W/m2
07:50 41.2 °F /  5.1 °C 40.6 °F /  4.8 °C 30.3in /  1026.8hPa Calm     98% 0.01in /  0.2mm 0 W/m2
07:55 41.4 °F /  5.2 °C 40.8 °F /  4.9 °C 30.3in /  1026.8hPa Calm     98% 0.01in /  0.2mm 0 W/m2
08:00 41.4 °F /  5.2 °C 40.8 °F /  4.9 °C 30.3in /  1026.8hPa Calm     98% 0.01in /  0.2mm 0 W/m2
08:05 41.4 °F /  5.2 °C 40.8 °F /  4.9 °C 30.3in /  1026.8hPa Calm     98% 0.01in /  0.2mm 0 W/m2
08:10 41.5 °F /  5.3 °C 41 °F /  5 °C 30.3in /  1026.8hPa Calm   2mph /  3.2km/h 98% 0.01in /  0.2mm 0 W/m2
08:15 41.5 °F /  5.3 °C 41 °F /  5 °C 30.3in /  1026.8hPa ESE 2mph /  3.2km/h 4mph /  6.4km/h 98% 0.01in /  0.2mm 0 W/m2
08:20 41.5 °F /  5.3 °C 41 °F /  5 °C 30.3in /  1026.8hPa ESE 0.9mph /  1.4km/h 3mph /  4.8km/h 98% 0.01in /  0.2mm 0 W/m2
08:25 41.7 °F /  5.4 °C 41.2 °F /  5.1 °C 30.3in /  1026.8hPa ESE 0.9mph /  1.4km/h 2mph /  3.2km/h 98% 0.01in /  0.2mm 0 W/m2
08:30 41.7 °F /  5.4 °C 41.2 °F /  5.1 °C 30.3in /  1027.1hPa Calm     98% 0.01in /  0.2mm 0 W/m2
08:35 41.9 °F /  5.5 °C 41.4 °F /  5.2 °C 30.3in /  1027.1hPa SE 2.9mph /  4.7km/h 3mph /  4.8km/h 98% 0.01in /  0.2mm 0 W/m2
08:40 42.1 °F /  5.6 °C 41.5 °F /  5.3 °C 30.3in /  1027.1hPa SE 2mph /  3.2km/h 2mph /  3.2km/h 98% 0.02in /  0.5mm 0 W/m2
08:45 42.1 °F /  5.6 °C 41.5 °F /  5.3 °C 30.3in /  1027.1hPa ESE 2mph /  3.2km/h 3mph /  4.8km/h 98% 0.01in /  0.2mm 0 W/m2
08:50 42.1 °F /  5.6 °C 41.5 °F /  5.3 °C 30.3in /  1027.1hPa ESE 2mph /  3.2km/h 3mph /  4.8km/h 98% 0.01in /  0.2mm 0 W/m2
08:55 42.1 °F /  5.6 °C 41.5 °F /  5.3 °C 30.3in /  1027.1hPa ESE 2mph /  3.2km/h 3mph /  4.8km/h 98% 0.01in /  0.2mm 0 W/m2
09:00 42.1 °F /  5.6 °C 41.5 °F /  5.3 °C 30.3in /  1027.1hPa SE 2mph /  3.2km/h 4mph /  6.4km/h 98% 0.01in /  0.2mm 7 W/m2
09:05 42.3 °F /  5.7 °C 41.7 °F /  5.4 °C 30.3in /  1027.1hPa ESE 2.9mph /  4.7km/h 3mph /  4.8km/h 98% 0.01in /  0.2mm 9 W/m2
09:10 42.3 °F /  5.7 °C 41.7 °F /  5.4 °C 30.3in /  1027.1hPa SE 0.9mph /  1.4km/h 4mph /  6.4km/h 98% 0.01in /  0.2mm 11 W/m2
09:16 42.4 °F /  5.8 °C 41.9 °F /  5.5 °C 30.3in /  1027.4hPa Calm     98% 0.01in /  0.2mm 11 W/m2
09:21 42.4 °F /  5.8 °C 41.9 °F /  5.5 °C 30.3in /  1027.4hPa ESE 2.9mph /  4.7km/h 3mph /  4.8km/h 98% 0.01in /  0.2mm 12 W/m2
09:26 42.6 °F /  5.9 °C 42.1 °F /  5.6 °C 30.3in /  1027.4hPa ESE 0.9mph /  1.4km/h 3mph /  4.8km/h 98% 0.01in /  0.2mm 14 W/m2
09:31 42.6 °F /  5.9 °C 42.1 °F /  5.6 °C 30.3in /  1027.4hPa ESE 2mph /  3.2km/h 3mph /  4.8km/h 98% 0.01in /  0.2mm 16 W/m2
09:36 42.6 °F /  5.9 °C 42.1 °F /  5.6 °C 30.3in /  1027.4hPa East 4mph /  6.4km/h 4mph /  6.4km/h 98% 0.02in /  0.5mm 18 W/m2
09:41 42.8 °F /  6 °C 42.3 °F /  5.7 °C 30.3in /  1027.4hPa East 0.9mph /  1.4km/h 3mph /  4.8km/h 98% 0.01in /  0.2mm 12 W/m2
09:46 43 °F /  6.1 °C 42.4 °F /  5.8 °C 30.3in /  1027.4hPa Calm     98% 0.01in /  0.2mm 12 W/m2
09:51 43 °F /  6.1 °C 42.4 °F /  5.8 °C 30.3in /  1027.4hPa ESE 0.9mph /  1.4km/h 2mph /  3.2km/h 98% 0.01in /  0.2mm 16 W/m2
09:56 43.2 °F /  6.2 °C 42.6 °F /  5.9 °C 30.3in /  1027.4hPa Calm     98% 0.01in /  0.2mm 21 W/m2
10:01 43.2 °F /  6.2 °C 42.6 °F /  5.9 °C 30.3in /  1027.4hPa Calm     98% 0.01in /  0.2mm 32 W/m2
10:06 43.2 °F /  6.2 °C 42.6 °F /  5.9 °C 30.3in /  1027.4hPa Calm     98% 0.01in /  0.2mm 33 W/m2
10:11 43.3 °F /  6.3 °C 42.8 °F /  6 °C 30.3in /  1027.4hPa East 2mph /  3.2km/h 3mph /  4.8km/h 98% 0.02in /  0.5mm 35 W/m2
10:16 43.5 °F /  6.4 °C 43 °F /  6.1 °C 30.3in /  1027.4hPa East 2.9mph /  4.7km/h 4mph /  6.4km/h 98% 0.02in /  0.5mm 39 W/m2
10:21 43.5 °F /  6.4 °C 43 °F /  6.1 °C 30.3in /  1027.4hPa Calm   2mph /  3.2km/h 98% 0.02in /  0.5mm 35 W/m2
10:26 43.7 °F /  6.5 °C 43.2 °F /  6.2 °C 30.3in /  1027.4hPa East 0.9mph /  1.4km/h 4mph /  6.4km/h 98% 0.02in /  0.5mm 30 W/m2
10:31 43.9 °F /  6.6 °C 43.3 °F /  6.3 °C 30.3in /  1027.4hPa Calm   3mph /  4.8km/h 98% 0.02in /  0.5mm 26 W/m2
10:36 43.9 °F /  6.6 °C 43.3 °F /  6.3 °C 30.4in /  1027.8hPa East 0.9mph /  1.4km/h 4mph /  6.4km/h 98% 0.01in /  0.2mm 26 W/m2
10:41 43.9 °F /  6.6 °C 43.3 °F /  6.3 °C 30.4in /  1027.8hPa East 0.9mph /  1.4km/h 2mph /  3.2km/h 98% 0.01in /  0.2mm 25 W/m2
10:46 44.1 °F /  6.7 °C 43.5 °F /  6.4 °C 30.4in /  1027.8hPa Calm   2mph /  3.2km/h 98% 0.01in /  0.2mm 26 W/m2
10:51 44.1 °F /  6.7 °C 43.5 °F /  6.4 °C 30.4in /  1027.8hPa East 4mph /  6.4km/h 6mph /  9.7km/h 98% 0.01in /  0.2mm 30 W/m2
10:57 44.1 °F /  6.7 °C 43.5 °F /  6.4 °C 30.4in /  1027.8hPa East 2.9mph /  4.7km/h 4mph /  6.4km/h 98% 0.01in /  0.2mm 37 W/m2
11:02 44.2 °F /  6.8 °C 43.7 °F /  6.5 °C 30.4in /  1027.8hPa ENE 2mph /  3.2km/h 6mph /  9.7km/h 98% 0.02in /  0.5mm 37 W/m2
11:07 44.2 °F /  6.8 °C 43.7 °F /  6.5 °C 30.3in /  1027.4hPa ESE 2.9mph /  4.7km/h 3mph /  4.8km/h 98% 0.02in /  0.5mm 46 W/m2
11:12 44.4 °F /  6.9 °C 43.9 °F /  6.6 °C 30.3in /  1027.4hPa Calm   3mph /  4.8km/h 98% 0.01in /  0.2mm 49 W/m2
11:17 44.8 °F /  7.1 °C 44.2 °F /  6.8 °C 30.4in /  1027.8hPa Calm   2mph /  3.2km/h 98% 0.01in /  0.2mm 46 W/m2
11:22 44.8 °F /  7.1 °C 44.2 °F /  6.8 °C 30.4in /  1027.8hPa ENE 2mph /  3.2km/h 3mph /  4.8km/h 98% 0.01in /  0.2mm 40 W/m2
11:27 45 °F /  7.2 °C 44.4 °F /  6.9 °C 30.4in /  1027.8hPa ENE 0.9mph /  1.4km/h 3mph /  4.8km/h 98% 0.01in /  0.2mm 40 W/m2
11:32 45 °F /  7.2 °C 44.4 °F /  6.9 °C 30.3in /  1027.4hPa NE 4mph /  6.4km/h 4mph /  6.4km/h 98% 0.01in /  0.2mm 40 W/m2
11:37 45 °F /  7.2 °C 44.4 °F /  6.9 °C 30.3in /  1027.4hPa Calm   3mph /  4.8km/h 98% 0.01in /  0.2mm 37 W/m2
11:42 45 °F /  7.2 °C 44.4 °F /  6.9 °C 30.3in /  1027.4hPa East 2mph /  3.2km/h 3mph /  4.8km/h 98% 0.01in /  0.2mm 44 W/m2
11:47 45 °F /  7.2 °C 44.4 °F /  6.9 °C 30.3in /  1027.4hPa East 0.9mph /  1.4km/h 4mph /  6.4km/h 98% 0.01in /  0.2mm 58 W/m2
11:52 45.1 °F /  7.3 °C 44.6 °F /  7 °C 30.3in /  1027.4hPa East 2mph /  3.2km/h 3mph /  4.8km/h 98% 0.01in /  0.2mm 62 W/m2
11:57 45.5 °F /  7.5 °C 45 °F /  7.2 °C 30.3in /  1027.4hPa ENE 2mph /  3.2km/h 4mph /  6.4km/h 98% 0.01in /  0.2mm 53 W/m2
12:02 45.5 °F /  7.5 °C 45 °F /  7.2 °C 30.3in /  1027.4hPa ENE 2.9mph /  4.7km/h 4mph /  6.4km/h 98% 0in /  0.0mm 39 W/m2
12:07 45.7 °F /  7.6 °C 45.1 °F /  7.3 °C 30.3in /  1027.4hPa ENE 2.9mph /  4.7km/h 4mph /  6.4km/h 98% 0in /  0.0mm 35 W/m2
12:12 45.7 °F /  7.6 °C 45.1 °F /  7.3 °C 30.3in /  1027.1hPa Calm     98% 0in /  0.0mm 37 W/m2
12:17 45.9 °F /  7.7 °C 45.3 °F /  7.4 °C 30.3in /  1027.1hPa ENE 2mph /  3.2km/h 4mph /  6.4km/h 98% 0.01in /  0.2mm 47 W/m2
12:22 46 °F /  7.8 °C 45.5 °F /  7.5 °C 30.3in /  1027.1hPa Calm   1mph /  1.6km/h 98% 0.01in /  0.2mm 44 W/m2
12:27 46.2 °F /  7.9 °C 45.7 °F /  7.6 °C 30.3in /  1027.1hPa NE 0.9mph /  1.4km/h 3mph /  4.8km/h 98% 0.01in /  0.2mm 39 W/m2
12:32 46.4 °F /  8 °C 45.9 °F /  7.7 °C 30.3in /  1027.1hPa Calm   1mph /  1.6km/h 98% 0.01in /  0.2mm 26 W/m2
12:37 46.6 °F /  8.1 °C 46 °F /  7.8 °C 30.3in /  1027.1hPa NW 2mph /  3.2km/h 4mph /  6.4km/h 98% 0.01in /  0.2mm 32 W/m2
12:42 46.8 °F /  8.2 °C 46.2 °F /  7.9 °C 30.3in /  1027.1hPa Calm     98% 0.01in /  0.2mm 47 W/m2
12:47 46.8 °F /  8.2 °C 46.2 °F /  7.9 °C 30.3in /  1027.1hPa NNE 2mph /  3.2km/h 2mph /  3.2km/h 98% 0.01in /  0.2mm 86 W/m2
12:52 46.9 °F /  8.3 °C 46.4 °F /  8 °C 30.3in /  1026.8hPa Calm   3mph /  4.8km/h 98% 0.01in /  0.2mm 90 W/m2
12:57 47.1 °F /  8.4 °C 46.9 °F /  8.3 °C 30.3in /  1026.8hPa NNE 4mph /  6.4km/h 4mph /  6.4km/h 99% 0.01in /  0.2mm 69 W/m2
13:02 47.1 °F /  8.4 °C 46.6 °F /  8.1 °C 30.3in /  1026.8hPa Calm   2mph /  3.2km/h 98% 0.01in /  0.2mm 56 W/m2
13:07 47.3 °F /  8.5 °C 46.8 °F /  8.2 °C 30.3in /  1026.8hPa South 2mph /  3.2km/h 4mph /  6.4km/h 98% 0.01in /  0.2mm 53 W/m2
13:12 47.3 °F /  8.5 °C 46.8 °F /  8.2 °C 30.3in /  1026.8hPa NE 2.9mph /  4.7km/h 4mph /  6.4km/h 98% 0.01in /  0.2mm 49 W/m2
13:17 47.5 °F /  8.6 °C 46.9 °F /  8.3 °C 30.3in /  1026.8hPa Calm   2mph /  3.2km/h 98% 0in /  0.0mm 53 W/m2
13:22 47.5 °F /  8.6 °C 46.9 °F /  8.3 °C 30.3in /  1026.8hPa NE 2.9mph /  4.7km/h 4mph /  6.4km/h 98% 0in /  0.0mm 47 W/m2
13:27 47.5 °F /  8.6 °C 46.9 °F /  8.3 °C 30.3in /  1026.8hPa Calm   3mph /  4.8km/h 98% 0in /  0.0mm 51 W/m2
13:32 47.5 °F /  8.6 °C 46.9 °F /  8.3 °C 30.3in /  1026.8hPa Calm   1mph /  1.6km/h 98% 0in /  0.0mm 54 W/m2
13:37 47.5 °F /  8.6 °C 46.9 °F /  8.3 °C 30.3in /  1026.8hPa Calm   2mph /  3.2km/h 98% 0in /  0.0mm 47 W/m2
13:42 47.7 °F /  8.7 °C 47.1 °F /  8.4 °C 30.3in /  1026.4hPa East 2.9mph /  4.7km/h 4mph /  6.4km/h 98% 0in /  0.0mm 63 W/m2
13:47 47.7 °F /  8.7 °C 47.1 °F /  8.4 °C 30.3in /  1026.4hPa Calm     98% 0in /  0.0mm 42 W/m2
13:52 47.7 °F /  8.7 °C 47.1 °F /  8.4 °C 30.3in /  1026.4hPa Calm   1mph /  1.6km/h 98% 0in /  0.0mm 53 W/m2
13:57 47.8 °F /  8.8 °C 47.3 °F /  8.5 °C 30.3in /  1026.4hPa Calm   3mph /  4.8km/h 98% 0.01in /  0.2mm 62 W/m2
14:02 47.8 °F /  8.8 °C 47.3 °F /  8.5 °C 30.3in /  1026.4hPa Calm   3mph /  4.8km/h 98% 0.01in /  0.2mm 60 W/m2
14:07 48 °F /  8.9 °C 47.5 °F /  8.6 °C 30.3in /  1026.4hPa ENE 2.9mph /  4.7km/h 4mph /  6.4km/h 98% 0.01in /  0.2mm 56 W/m2
14:12 47.8 °F /  8.8 °C 47.3 °F /  8.5 °C 30.3in /  1026.4hPa ENE 2.9mph /  4.7km/h 4mph /  6.4km/h 98% 0.01in /  0.2mm 77 W/m2
14:17 48 °F /  8.9 °C 47.5 °F /  8.6 °C 30.3in /  1026.1hPa ENE 0.9mph /  1.4km/h 1mph /  1.6km/h 98% 0.01in /  0.2mm 95 W/m2
14:22 48.2 °F /  9 °C 47.7 °F /  8.7 °C 30.3in /  1026.1hPa NNE 4mph /  6.4km/h 4mph /  6.4km/h 98% 0.01in /  0.2mm 95 W/m2
14:28 48 °F /  8.9 °C 47.5 °F /  8.6 °C 30.3in /  1026.1hPa Calm   4mph /  6.4km/h 98% 0.01in /  0.2mm 56 W/m2
14:33 47.8 °F /  8.8 °C 47.3 °F /  8.5 °C 30.3in /  1026.1hPa ENE 2.9mph /  4.7km/h 5mph /  8km/h 98% 0.01in /  0.2mm 46 W/m2
14:38 47.8 °F /  8.8 °C 47.3 °F /  8.5 °C 30.3in /  1026.1hPa Calm   1mph /  1.6km/h 98% 0.01in /  0.2mm 44 W/m2
14:43 47.8 °F /  8.8 °C 47.3 °F /  8.5 °C 30.3in /  1026.1hPa Calm   3mph /  4.8km/h 98% 0.01in /  0.2mm 39 W/m2
14:48 48 °F /  8.9 °C 47.5 °F /  8.6 °C 30.3in /  1026.1hPa East 2mph /  3.2km/h 3mph /  4.8km/h 98% 0.01in /  0.2mm 30 W/m2
14:53 47.8 °F /  8.8 °C 47.3 °F /  8.5 °C 30.3in /  1026.4hPa Calm     98% 0.01in /  0.2mm 25 W/m2
14:58 47.7 °F /  8.7 °C 47.1 °F /  8.4 °C 30.3in /  1026.4hPa ESE 0.9mph /  1.4km/h 2mph /  3.2km/h 98% 0in /  0.0mm 23 W/m2
15:03 47.7 °F /  8.7 °C 47.1 °F /  8.4 °C 30.3in /  1026.4hPa East 0.9mph /  1.4km/h 3mph /  4.8km/h 98% 0in /  0.0mm 18 W/m2
15:08 47.7 °F /  8.7 °C 47.1 °F /  8.4 °C 30.3in /  1026.4hPa East 0.9mph /  1.4km/h 1mph /  1.6km/h 98% 0in /  0.0mm 16 W/m2
15:13 47.8 °F /  8.8 °C 47.3 °F /  8.5 °C 30.3in /  1026.4hPa Calm   1mph /  1.6km/h 98% 0in /  0.0mm 18 W/m2
15:18 47.8 °F /  8.8 °C 47.3 °F /  8.5 °C 30.3in /  1026.4hPa SSE 0.9mph /  1.4km/h 2mph /  3.2km/h 98% 0in /  0.0mm 18 W/m2
15:23 47.8 °F /  8.8 °C 47.3 °F /  8.5 °C 30.3in /  1026.4hPa Calm     98% 0in /  0.0mm 14 W/m2
15:28 47.8 °F /  8.8 °C 47.3 °F /  8.5 °C 30.3in /  1026.4hPa Calm     98% 0in /  0.0mm 12 W/m2
15:33 47.8 °F /  8.8 °C 47.3 °F /  8.5 °C 30.3in /  1026.4hPa Calm   1mph /  1.6km/h 98% 0in /  0.0mm 12 W/m2
15:38 47.8 °F /  8.8 °C 47.3 °F /  8.5 °C 30.3in /  1026.4hPa Calm   3mph /  4.8km/h 98% 0in /  0.0mm 11 W/m2
15:43 47.8 °F /  8.8 °C 47.3 °F /  8.5 °C 30.3in /  1026.4hPa ENE 0.9mph /  1.4km/h 2mph /  3.2km/h 98% 0in /  0.0mm 12 W/m2
15:48 47.7 °F /  8.7 °C 47.1 °F /  8.4 °C 30.3in /  1026.4hPa Calm   2mph /  3.2km/h 98% 0in /  0.0mm 12 W/m2
15:53 47.7 °F /  8.7 °C 47.1 °F /  8.4 °C 30.3in /  1026.4hPa East 2mph /  3.2km/h 2mph /  3.2km/h 98% 0in /  0.0mm 12 W/m2
15:58 47.7 °F /  8.7 °C 47.1 °F /  8.4 °C 30.3in /  1026.4hPa Calm     98% 0in /  0.0mm 12 W/m2
16:03 47.7 °F /  8.7 °C 47.1 °F /  8.4 °C 30.3in /  1026.4hPa ESE 2mph /  3.2km/h 3mph /  4.8km/h 98% 0in /  0.0mm 12 W/m2
16:08 47.7 °F /  8.7 °C 47.1 °F /  8.4 °C 30.3in /  1026.4hPa East 2.9mph /  4.7km/h 4mph /  6.4km/h 98% 0in /  0.0mm 12 W/m2
16:14 47.5 °F /  8.6 °C 46.9 °F /  8.3 °C 30.3in /  1026.1hPa East 2mph /  3.2km/h 3mph /  4.8km/h 98% 0in /  0.0mm 9 W/m2
16:19 47.7 °F /  8.7 °C 47.1 °F /  8.4 °C 30.3in /  1026.1hPa East 2mph /  3.2km/h 3mph /  4.8km/h 98% 0in /  0.0mm 5 W/m2
16:24 47.5 °F /  8.6 °C 46.9 °F /  8.3 °C 30.3in /  1026.1hPa East 2mph /  3.2km/h 3mph /  4.8km/h 98% 0in /  0.0mm 0 W/m2
16:29 47.5 °F /  8.6 °C 46.9 °F /  8.3 °C 30.3in /  1026.1hPa East 2.9mph /  4.7km/h 4mph /  6.4km/h 98% 0in /  0.0mm 5 W/m2
16:34 47.3 °F /  8.5 °C 46.8 °F /  8.2 °C 30.3in /  1026.1hPa East 2mph /  3.2km/h 4mph /  6.4km/h 98% 0in /  0.0mm 5 W/m2
16:39 47.3 °F /  8.5 °C 46.8 °F /  8.2 °C 30.3in /  1025.7hPa East 0.9mph /  1.4km/h 5mph /  8km/h 98% 0in /  0.0mm 5 W/m2
16:44 47.7 °F /  8.7 °C 47.1 °F /  8.4 °C 30.3in /  1025.7hPa ENE 2.9mph /  4.7km/h 4mph /  6.4km/h 98% 0in /  0.0mm 0 W/m2
16:49 48 °F /  8.9 °C 47.5 °F /  8.6 °C 30.3in /  1025.7hPa Calm     98% 0in /  0.0mm 0 W/m2
16:54 48.2 °F /  9 °C 47.7 °F /  8.7 °C 30.3in /  1025.7hPa Calm   3mph /  4.8km/h 98% 0in /  0.0mm 0 W/m2
16:59 48.6 °F /  9.2 °C 48 °F /  8.9 °C 30.3in /  1025.7hPa Calm   3mph /  4.8km/h 98% 0in /  0.0mm 0 W/m2
17:04 48.7 °F /  9.3 °C 48.2 °F /  9 °C 30.3in /  1025.7hPa West 0.9mph /  1.4km/h 3mph /  4.8km/h 98% 0in /  0.0mm 0 W/m2
17:09 48.9 °F /  9.4 °C 48.7 °F /  9.3 °C 30.3in /  1025.7hPa Calm   2mph /  3.2km/h 99% 0in /  0.0mm 0 W/m2
17:15 48.9 °F /  9.4 °C 48.4 °F /  9.1 °C 30.3in /  1026.1hPa Calm   1mph /  1.6km/h 98% 0in /  0.0mm 0 W/m2
17:20 48.9 °F /  9.4 °C 48.4 °F /  9.1 °C 30.3in /  1026.1hPa Calm     98% 0in /  0.0mm 0 W/m2
17:25 48.7 °F /  9.3 °C 48.2 °F /  9 °C 30.3in /  1026.1hPa South 0.9mph /  1.4km/h 4mph /  6.4km/h 98% 0in /  0.0mm 0 W/m2
17:30 48.9 °F /  9.4 °C 48.4 °F /  9.1 °C 30.3in /  1026.1hPa Calm     98% 0in /  0.0mm 0 W/m2
17:35 48.9 °F /  9.4 °C 48.4 °F /  9.1 °C 30.3in /  1026.1hPa SW 0.9mph /  1.4km/h 4mph /  6.4km/h 98% 0in /  0.0mm 0 W/m2
17:40 49.1 °F /  9.5 °C 48.6 °F /  9.2 °C 30.3in /  1026.1hPa Calm   3mph /  4.8km/h 98% 0in /  0.0mm 0 W/m2
17:45 49.3 °F /  9.6 °C 48.7 °F /  9.3 °C 30.3in /  1026.1hPa Calm   8mph /  12.9km/h 98% 0in /  0.0mm 0 W/m2
17:50 49.3 °F /  9.6 °C 48.7 °F /  9.3 °C 30.3in /  1026.4hPa ENE 2mph /  3.2km/h 3mph /  4.8km/h 98% 0in /  0.0mm 0 W/m2
17:55 49.3 °F /  9.6 °C 48.7 °F /  9.3 °C 30.3in /  1026.4hPa WNW 2mph /  3.2km/h 5mph /  8km/h 98% 0in /  0.0mm 0 W/m2
18:00 49.3 °F /  9.6 °C 48.7 °F /  9.3 °C 30.3in /  1026.4hPa Calm   4mph /  6.4km/h 98% 0in /  0.0mm 0 W/m2
18:05 49.3 °F /  9.6 °C 48.7 °F /  9.3 °C 30.3in /  1026.4hPa Calm   5mph /  8km/h 98% 0in /  0.0mm 0 W/m2
18:10 49.3 °F /  9.6 °C 48.7 °F /  9.3 °C 30.3in /  1026.4hPa Calm   1mph /  1.6km/h 98% 0in /  0.0mm 0 W/m2
18:15 49.3 °F /  9.6 °C 48.7 °F /  9.3 °C 30.3in /  1026.4hPa Calm     98% 0in /  0.0mm 0 W/m2
18:20 49.5 °F /  9.7 °C 48.9 °F /  9.4 °C 30.3in /  1026.8hPa WSW 0.9mph /  1.4km/h 2mph /  3.2km/h 98% 0in /  0.0mm 0 W/m2
18:25 49.5 °F /  9.7 °C 48.9 °F /  9.4 °C 30.3in /  1026.4hPa Calm   3mph /  4.8km/h 98% 0in /  0.0mm 0 W/m2
18:30 49.5 °F /  9.7 °C 48.9 °F /  9.4 °C 30.3in /  1026.4hPa Calm     98% 0in /  0.0mm 0 W/m2
18:35 49.5 °F /  9.7 °C 48.9 °F /  9.4 °C 30.3in /  1026.4hPa SSW 2mph /  3.2km/h 4mph /  6.4km/h 98% 0in /  0.0mm 0 W/m2
18:40 49.5 °F /  9.7 °C 48.9 °F /  9.4 °C 30.3in /  1026.4hPa Calm   3mph /  4.8km/h 98% 0in /  0.0mm 0 W/m2
18:45 49.5 °F /  9.7 °C 48.9 °F /  9.4 °C 30.3in /  1026.4hPa Calm   4mph /  6.4km/h 98% 0in /  0.0mm 0 W/m2
18:50 49.3 °F /  9.6 °C 48.7 °F /  9.3 °C 30.3in /  1026.4hPa Calm     98% 0in /  0.0mm 0 W/m2
18:55 49.3 °F /  9.6 °C 48.7 °F /  9.3 °C 30.3in /  1026.4hPa Calm   4mph /  6.4km/h 98% 0in /  0.0mm 0 W/m2
19:00 49.5 °F /  9.7 °C 48.9 °F /  9.4 °C 30.3in /  1026.4hPa Calm     98% 0in /  0.0mm 0 W/m2
19:05 49.5 °F /  9.7 °C 48.9 °F /  9.4 °C 30.3in /  1026.1hPa Calm   4mph /  6.4km/h 98% 0in /  0.0mm 0 W/m2
19:10 49.5 °F /  9.7 °C 48.9 °F /  9.4 °C 30.3in /  1026.4hPa Calm     98% 0in /  0.0mm 0 W/m2
19:15 49.5 °F /  9.7 °C 48.9 °F /  9.4 °C 30.3in /  1026.4hPa WSW 2mph /  3.2km/h 7mph /  11.3km/h 98% 0in /  0.0mm 0 W/m2
19:20 49.5 °F /  9.7 °C 48.9 °F /  9.4 °C 30.3in /  1026.4hPa SSW 2.9mph /  4.7km/h 3mph /  4.8km/h 98% 0in /  0.0mm 0 W/m2
19:25 49.6 °F /  9.8 °C 49.1 °F /  9.5 °C 30.3in /  1026.4hPa Calm   1mph /  1.6km/h 98% 0in /  0.0mm 0 W/m2
19:30 49.5 °F /  9.7 °C 48.9 °F /  9.4 °C 30.3in /  1026.4hPa Calm   1mph /  1.6km/h 98% 0in /  0.0mm 0 W/m2
19:35 49.5 °F /  9.7 °C 48.9 °F /  9.4 °C 30.3in /  1026.4hPa Calm     98% 0in /  0.0mm 0 W/m2
19:40 49.6 °F /  9.8 °C 49.1 °F /  9.5 °C 30.3in /  1026.4hPa SE 0.9mph /  1.4km/h 3mph /  4.8km/h 98% 0in /  0.0mm 0 W/m2
19:45 49.6 °F /  9.8 °C 49.1 °F /  9.5 °C 30.3in /  1026.1hPa Calm   3mph /  4.8km/h 98% 0in /  0.0mm 0 W/m2
19:50 49.6 °F /  9.8 °C 49.1 °F /  9.5 °C 30.3in /  1026.1hPa Calm   4mph /  6.4km/h 98% 0in /  0.0mm 0 W/m2
19:55 49.6 °F /  9.8 °C 49.1 °F /  9.5 °C 30.3in /  1026.1hPa Calm   2mph /  3.2km/h 98% 0in /  0.0mm 0 W/m2
20:00 49.6 °F /  9.8 °C 49.1 °F /  9.5 °C 30.3in /  1025.7hPa Calm   4mph /  6.4km/h 98% 0in /  0.0mm 0 W/m2
20:05 49.6 °F /  9.8 °C 49.1 °F /  9.5 °C 30.3in /  1026.1hPa Calm     98% 0in /  0.0mm 0 W/m2
20:10 49.6 °F /  9.8 °C 49.1 °F /  9.5 °C 30.3in /  1026.1hPa Calm   3mph /  4.8km/h 98% 0in /  0.0mm 0 W/m2
20:15 49.5 °F /  9.7 °C 48.9 °F /  9.4 °C 30.3in /  1026.1hPa ESE 2mph /  3.2km/h 2mph /  3.2km/h 98% 0in /  0.0mm 0 W/m2
20:20 49.5 °F /  9.7 °C 48.9 °F /  9.4 °C 30.3in /  1025.7hPa NE 4mph /  6.4km/h 4mph /  6.4km/h 98% 0in /  0.0mm 0 W/m2
20:25 49.6 °F /  9.8 °C 49.1 °F /  9.5 °C 30.3in /  1025.7hPa NE 2mph /  3.2km/h 2mph /  3.2km/h 98% 0in /  0.0mm 0 W/m2
20:30 49.6 °F /  9.8 °C 49.1 °F /  9.5 °C 30.3in /  1025.7hPa East 2mph /  3.2km/h 2mph /  3.2km/h 98% 0in /  0.0mm 0 W/m2
20:35 49.3 °F /  9.6 °C 48.7 °F /  9.3 °C 30.3in /  1025.7hPa East 2mph /  3.2km/h 4mph /  6.4km/h 98% 0in /  0.0mm 0 W/m2
20:40 49.1 °F /  9.5 °C 48.6 °F /  9.2 °C 30.3in /  1025.7hPa Calm   1mph /  1.6km/h 98% 0in /  0.0mm 0 W/m2
20:45 48.9 °F /  9.4 °C 48.4 °F /  9.1 °C 30.3in /  1025.7hPa ESE 2mph /  3.2km/h 2mph /  3.2km/h 98% 0in /  0.0mm 0 W/m2
20:50 48.7 °F /  9.3 °C 48.2 °F /  9 °C 30.3in /  1025.7hPa East 2mph /  3.2km/h 3mph /  4.8km/h 98% 0in /  0.0mm 0 W/m2
20:55 48.7 °F /  9.3 °C 48.2 °F /  9 °C 30.3in /  1025.7hPa East 2.9mph /  4.7km/h 3mph /  4.8km/h 98% 0in /  0.0mm 0 W/m2
21:01 48.7 °F /  9.3 °C 48.2 °F /  9 °C 30.3in /  1025.7hPa Calm   1mph /  1.6km/h 98% 0in /  0.0mm 0 W/m2
21:06 48.7 °F /  9.3 °C 48.2 °F /  9 °C 30.3in /  1025.7hPa ESE 2mph /  3.2km/h 4mph /  6.4km/h 98% 0in /  0.0mm 0 W/m2
21:11 48.7 °F /  9.3 °C 48.2 °F /  9 °C 30.3in /  1025.7hPa Calm     98% 0in /  0.0mm 0 W/m2
21:16 48.6 °F /  9.2 °C 48 °F /  8.9 °C 30.3in /  1025.7hPa Calm   4mph /  6.4km/h 98% 0.01in /  0.2mm 0 W/m2
21:21 48.7 °F /  9.3 °C 48.2 °F /  9 °C 30.3in /  1025.7hPa Calm     98% 0.01in /  0.2mm 0 W/m2
21:26 48.9 °F /  9.4 °C 48.4 °F /  9.1 °C 30.3in /  1025.7hPa ESE 0.9mph /  1.4km/h 3mph /  4.8km/h 98% 0.01in /  0.2mm 0 W/m2
21:31 48.9 °F /  9.4 °C 48.4 °F /  9.1 °C 30.3in /  1025.7hPa East 0.9mph /  1.4km/h 2mph /  3.2km/h 98% 0.01in /  0.2mm 0 W/m2
21:36 48.7 °F /  9.3 °C 48.2 °F /  9 °C 30.3in /  1025.7hPa East 0.9mph /  1.4km/h 2mph /  3.2km/h 98% 0.01in /  0.2mm 0 W/m2
21:41 48.7 °F /  9.3 °C 48.2 °F /  9 °C 30.3in /  1025.7hPa Calm   3mph /  4.8km/h 98% 0.01in /  0.2mm 0 W/m2
21:46 48.6 °F /  9.2 °C 48 °F /  8.9 °C 30.3in /  1025.4hPa SE 2mph /  3.2km/h 4mph /  6.4km/h 98% 0.01in /  0.2mm 0 W/m2
21:51 48.6 °F /  9.2 °C 48 °F /  8.9 °C 30.3in /  1025.4hPa Calm     98% 0.01in /  0.2mm 0 W/m2
21:56 48.6 °F /  9.2 °C 48 °F /  8.9 °C 30.3in /  1025.4hPa ESE 4mph /  6.4km/h 4mph /  6.4km/h 98% 0.01in /  0.2mm 0 W/m2
22:01 48.6 °F /  9.2 °C 48 °F /  8.9 °C 30.3in /  1025.4hPa ENE 2mph /  3.2km/h 3mph /  4.8km/h 98% 0.01in /  0.2mm 0 W/m2
22:06 48.6 °F /  9.2 °C 48 °F /  8.9 °C 30.3in /  1025.1hPa East 0.9mph /  1.4km/h 4mph /  6.4km/h 98% 0.01in /  0.2mm 0 W/m2
22:11 48.6 °F /  9.2 °C 48 °F /  8.9 °C 30.3in /  1025.1hPa East 2.9mph /  4.7km/h 3mph /  4.8km/h 98% 0.01in /  0.2mm 0 W/m2
22:16 48.6 °F /  9.2 °C 48 °F /  8.9 °C 30.3in /  1025.1hPa Calm   2mph /  3.2km/h 98% 0in /  0.0mm 0 W/m2
22:21 48.7 °F /  9.3 °C 48.2 °F /  9 °C 30.3in /  1025.1hPa Calm     98% 0in /  0.0mm 0 W/m2
22:26 48.7 °F /  9.3 °C 48.2 °F /  9 °C 30.3in /  1025.1hPa Calm     98% 0in /  0.0mm 0 W/m2
22:31 48.9 °F /  9.4 °C 48.4 °F /  9.1 °C 30.3in /  1025.1hPa East 2.9mph /  4.7km/h 4mph /  6.4km/h 98% 0in /  0.0mm 0 W/m2
22:36 48.9 °F /  9.4 °C 48.4 °F /  9.1 °C 30.3in /  1024.7hPa ENE 2mph /  3.2km/h 3mph /  4.8km/h 98% 0in /  0.0mm 0 W/m2
22:41 48.9 °F /  9.4 °C 48.4 °F /  9.1 °C 30.3in /  1024.7hPa East 2mph /  3.2km/h 3mph /  4.8km/h 98% 0in /  0.0mm 0 W/m2
22:46 48.9 °F /  9.4 °C 48.4 °F /  9.1 °C 30.3in /  1024.7hPa East 2mph /  3.2km/h 3mph /  4.8km/h 98% 0in /  0.0mm 0 W/m2
22:51 48.9 °F /  9.4 °C 48.4 °F /  9.1 °C 30.3in /  1024.7hPa East 0.9mph /  1.4km/h 3mph /  4.8km/h 98% 0in /  0.0mm 0 W/m2
22:56 48.7 °F /  9.3 °C 48.2 °F /  9 °C 30.3in /  1024.7hPa East 0.9mph /  1.4km/h 2mph /  3.2km/h 98% 0in /  0.0mm 0 W/m2
23:01 48.7 °F /  9.3 °C 48.2 °F /  9 °C 30.3in /  1025.1hPa East 2.9mph /  4.7km/h 3mph /  4.8km/h 98% 0in /  0.0mm 0 W/m2
23:06 48.7 °F /  9.3 °C 48.2 °F /  9 °C 30.3in /  1024.7hPa East 0.9mph /  1.4km/h 2mph /  3.2km/h 98% 0in /  0.0mm 0 W/m2
23:11 48.6 °F /  9.2 °C 48 °F /  8.9 °C 30.3in /  1024.7hPa ESE 2mph /  3.2km/h 3mph /  4.8km/h 98% 0in /  0.0mm 0 W/m2
23:16 48.4 °F /  9.1 °C 47.8 °F /  8.8 °C 30.3in /  1024.7hPa East 2.9mph /  4.7km/h 4mph /  6.4km/h 98% 0in /  0.0mm 0 W/m2
23:21 48.4 °F /  9.1 °C 47.8 °F /  8.8 °C 30.3in /  1024.7hPa ENE 2mph /  3.2km/h 3mph /  4.8km/h 98% 0in /  0.0mm 0 W/m2
23:26 48.2 °F /  9 °C 47.7 °F /  8.7 °C 30.3in /  1024.7hPa Calm   3mph /  4.8km/h 98% 0in /  0.0mm 0 W/m2
23:31 48.2 °F /  9 °C 47.7 °F /  8.7 °C 30.3in /  1024.7hPa ESE 0.9mph /  1.4km/h 2mph /  3.2km/h 98% 0in /  0.0mm 0 W/m2
23:36 48 °F /  8.9 °C 47.5 °F /  8.6 °C 30.3in /  1024.7hPa Calm   3mph /  4.8km/h 98% 0in /  0.0mm 0 W/m2
23:41 48 °F /  8.9 °C 47.5 °F /  8.6 °C 30.3in /  1024.7hPa Calm   2mph /  3.2km/h 98% 0in /  0.0mm 0 W/m2
23:46 48 °F /  8.9 °C 47.5 °F /  8.6 °C 30.3in /  1024.7hPa Calm   3mph /  4.8km/h 98% 0in /  0.0mm 0 W/m2
23:51 48 °F /  8.9 °C 47.5 °F /  8.6 °C 30.3in /  1024.7hPa Calm     98% 0in /  0.0mm 0 W/m2
23:57 48.4 °F /  9.1 °C 47.8 °F /  8.8 °C 30.3in /  1024.7hPa Calm   2mph /  3.2km/h 98% 0in /  0.0mm 0 W/m2
Juneau County Weather
Compliments of Weather Underground - 4 mb